WXM80 ListenWXM80 Stop

You find our weather info also at:

UK Metoffice

WeatherCloud

Weather Underground

Northeastern Weather Network

AWEKAS

Citizen Weather Observer Program (CWOP)

HAMweather, WeatherForYou, PWS Weather


Weather Underground History page Text

Daily Summary for August 9, 2017 Units:  Both    English   Metric
« Previous Day
Next Day »
Daily Weekly Monthly Yearly Custom
  High: Low: Average:
Temperature: 86.5 °F /  30.3 °C 62.0 °F /  16.7 °C 73.9 °F /  23.3 °C
Dew Point: 65.5 °F /  18.6 °C 57.6 °F /  14.2 °C 62.4 °F /  16.9 °C
Humidity: 96 % 38 % 71 %
Wind Speed: 4.0 mph /  6.4 km/h - 0.5 mph /  0.8 km/h
Wind Gust: 9.2 mph /  14.8 km/h - -
Wind:- - South
Pressure: 30.19 in /  1022.2 hPa 30.04 in /  1017.2 hPa -
Precipitation: 0.00 in /  0 mm    
Historical Graphs
 
 
Tabular Data for August 9, 2017
Time Temperature Dew Point Pressure Wind Wind Speed Wind Gust Humidity Rainfall Rate (Hourly)
00:03 65.9 °F /  18.8 °C 61.9 °F /  16.6 °C 30.04 in /  1017.2 hPa WNW 0.1 mph /  0.2 km/h 1.0 mph /  1.6 km/h 87 % 0.00 in /  0 mm
00:08 65.9 °F /  18.8 °C 62.2 °F /  16.8 °C 30.04 in /  1017.2 hPa Calm     88 % 0.00 in /  0 mm
00:13 65.9 °F /  18.8 °C 62.2 °F /  16.8 °C 30.04 in /  1017.2 hPa Calm     88 % 0.00 in /  0 mm
00:18 65.9 °F /  18.8 °C 62.6 °F /  17 °C 30.04 in /  1017.2 hPa Calm     89 % 0.00 in /  0 mm
00:23 65.9 °F /  18.8 °C 62.6 °F /  17 °C 30.04 in /  1017.2 hPa Calm     89 % 0.00 in /  0 mm
00:28 65.9 °F /  18.8 °C 62.6 °F /  17 °C 30.04 in /  1017.2 hPa Calm     89 % 0.00 in /  0 mm
00:33 65.9 °F /  18.8 °C 62.6 °F /  17 °C 30.05 in /  1017.5 hPa Calm     89 % 0.00 in /  0 mm
00:38 65.9 °F /  18.8 °C 62.6 °F /  17 °C 30.04 in /  1017.2 hPa Calm     89 % 0.00 in /  0 mm
00:43 65.9 °F /  18.8 °C 62.9 °F /  17.2 °C 30.04 in /  1017.2 hPa Calm     90 % 0.00 in /  0 mm
00:48 65.9 °F /  18.8 °C 62.9 °F /  17.2 °C 30.04 in /  1017.2 hPa Calm     90 % 0.00 in /  0 mm
00:49 65.9 °F /  18.8 °C 62.9 °F /  17.2 °C 30.04 in /  1017.2 hPa Calm     90 % 0.00 in /  0 mm
00:54 65.9 °F /  18.8 °C 62.9 °F /  17.2 °C 30.04 in /  1017.2 hPa Calm     90 % 0.00 in /  0 mm
00:59 65.9 °F /  18.8 °C 62.9 °F /  17.2 °C 30.04 in /  1017.2 hPa Calm     90 % 0.00 in /  0 mm
01:04 65.9 °F /  18.8 °C 63.2 °F /  17.3 °C 30.04 in /  1017.2 hPa Calm     91 % 0.00 in /  0 mm
01:09 65.9 °F /  18.8 °C 63.2 °F /  17.3 °C 30.05 in /  1017.5 hPa Calm   1.2 mph /  1.9 km/h 91 % 0.00 in /  0 mm
01:14 65.8 °F /  18.8 °C 63.1 °F /  17.3 °C 30.05 in /  1017.5 hPa WNW 0.1 mph /  0.2 km/h 1.2 mph /  1.9 km/h 91 % 0.00 in /  0 mm
01:19 65.8 °F /  18.8 °C 63.1 °F /  17.3 °C 30.05 in /  1017.5 hPa WNW 0.1 mph /  0.2 km/h 1.2 mph /  1.9 km/h 91 % 0.00 in /  0 mm
01:24 65.8 °F /  18.8 °C 63.1 °F /  17.3 °C 30.05 in /  1017.5 hPa WNW 0.1 mph /  0.2 km/h 2.3 mph /  3.7 km/h 91 % 0.00 in /  0 mm
01:29 65.8 °F /  18.8 °C 63.1 °F /  17.3 °C 30.05 in /  1017.5 hPa Calm   1.2 mph /  1.9 km/h 91 % 0.00 in /  0 mm
01:34 65.8 °F /  18.8 °C 63.1 °F /  17.3 °C 30.05 in /  1017.5 hPa Calm     91 % 0.00 in /  0 mm
01:39 65.8 °F /  18.8 °C 63.4 °F /  17.4 °C 30.05 in /  1017.5 hPa Calm     92 % 0.00 in /  0 mm
01:44 65.7 °F /  18.7 °C 63.0 °F /  17.2 °C 30.05 in /  1017.5 hPa WNW 0.1 mph /  0.2 km/h   91 % 0.00 in /  0 mm
01:49 65.7 °F /  18.7 °C 63.3 °F /  17.4 °C 30.05 in /  1017.5 hPa Calm     92 % 0.00 in /  0 mm
01:55 65.7 °F /  18.7 °C 63.3 °F /  17.4 °C 30.05 in /  1017.5 hPa Calm   1.0 mph /  1.6 km/h 92 % 0.00 in /  0 mm
02:00 65.6 °F /  18.7 °C 63.2 °F /  17.3 °C 30.05 in /  1017.5 hPa WNW 0.1 mph /  0.2 km/h 1.2 mph /  1.9 km/h 92 % 0.00 in /  0 mm
02:05 65.6 °F /  18.7 °C 63.2 °F /  17.3 °C 30.05 in /  1017.5 hPa Calm   1.2 mph /  1.9 km/h 92 % 0.00 in /  0 mm
02:10 65.6 °F /  18.7 °C 63.2 °F /  17.3 °C 30.05 in /  1017.5 hPa WNW 0.7 mph /  1.1 km/h 3.5 mph /  5.6 km/h 92 % 0.00 in /  0 mm
02:15 65.5 °F /  18.6 °C 63.1 °F /  17.3 °C 30.06 in /  1017.8 hPa West 0.6 mph /  1 km/h 3.5 mph /  5.6 km/h 92 % 0.00 in /  0 mm
02:20 65.6 °F /  18.7 °C 63.5 °F /  17.5 °C 30.05 in /  1017.5 hPa WSW 0.9 mph /  1.4 km/h 2.3 mph /  3.7 km/h 93 % 0.00 in /  0 mm
02:25 65.6 °F /  18.7 °C 63.5 °F /  17.5 °C 30.05 in /  1017.5 hPa Calm   2.3 mph /  3.7 km/h 93 % 0.00 in /  0 mm
02:30 65.6 °F /  18.7 °C 63.5 °F /  17.5 °C 30.06 in /  1017.8 hPa WSW 0.6 mph /  1 km/h 2.3 mph /  3.7 km/h 93 % 0.00 in /  0 mm
02:35 65.6 °F /  18.7 °C 63.5 °F /  17.5 °C 30.06 in /  1017.8 hPa West 0.9 mph /  1.4 km/h 3.5 mph /  5.6 km/h 93 % 0.00 in /  0 mm
02:40 65.7 °F /  18.7 °C 63.6 °F /  17.6 °C 30.06 in /  1017.8 hPa West 0.7 mph /  1.1 km/h 2.3 mph /  3.7 km/h 93 % 0.00 in /  0 mm
02:45 65.7 °F /  18.7 °C 63.6 °F /  17.6 °C 30.06 in /  1017.8 hPa WNW 0.9 mph /  1.4 km/h 2.3 mph /  3.7 km/h 93 % 0.00 in /  0 mm
02:50 65.8 °F /  18.8 °C 63.7 °F /  17.6 °C 30.06 in /  1017.8 hPa WNW 0.4 mph /  0.6 km/h 3.5 mph /  5.6 km/h 93 % 0.00 in /  0 mm
02:55 65.8 °F /  18.8 °C 63.7 °F /  17.6 °C 30.06 in /  1017.8 hPa WNW 0.1 mph /  0.2 km/h 1.2 mph /  1.9 km/h 93 % 0.00 in /  0 mm
03:00 65.8 °F /  18.8 °C 63.7 °F /  17.6 °C 30.06 in /  1017.8 hPa WNW 1.4 mph /  2.3 km/h 3.5 mph /  5.6 km/h 93 % 0.00 in /  0 mm
03:05 65.8 °F /  18.8 °C 63.7 °F /  17.6 °C 30.06 in /  1017.8 hPa WNW 0.6 mph /  1 km/h 2.3 mph /  3.7 km/h 93 % 0.00 in /  0 mm
03:10 65.8 °F /  18.8 °C 63.7 °F /  17.6 °C 30.06 in /  1017.8 hPa WNW 0.3 mph /  0.5 km/h 1.2 mph /  1.9 km/h 93 % 0.00 in /  0 mm
03:15 65.8 °F /  18.8 °C 63.7 °F /  17.6 °C 30.06 in /  1017.8 hPa Calm     93 % 0.00 in /  0 mm
03:20 65.8 °F /  18.8 °C 63.4 °F /  17.4 °C 30.07 in /  1018.2 hPa Calm   1.2 mph /  1.9 km/h 92 % 0.00 in /  0 mm
03:25 65.8 °F /  18.8 °C 63.4 °F /  17.4 °C 30.07 in /  1018.2 hPa Calm     92 % 0.00 in /  0 mm
03:30 65.8 °F /  18.8 °C 63.4 °F /  17.4 °C 30.07 in /  1018.2 hPa Calm     92 % 0.00 in /  0 mm
03:35 65.7 °F /  18.7 °C 63.3 °F /  17.4 °C 30.07 in /  1018.2 hPa Calm     92 % 0.00 in /  0 mm
03:40 65.7 °F /  18.7 °C 63.3 °F /  17.4 °C 30.07 in /  1018.2 hPa Calm     92 % 0.00 in /  0 mm
03:45 65.7 °F /  18.7 °C 63.3 °F /  17.4 °C 30.07 in /  1018.2 hPa Calm     92 % 0.00 in /  0 mm
03:51 65.6 °F /  18.7 °C 62.9 °F /  17.2 °C 30.07 in /  1018.2 hPa Calm     91 % 0.00 in /  0 mm
03:56 65.5 °F /  18.6 °C 62.8 °F /  17.1 °C 30.07 in /  1018.2 hPa Calm     91 % 0.00 in /  0 mm
04:01 65.4 °F /  18.6 °C 62.7 °F /  17.1 °C 30.08 in /  1018.5 hPa Calm     91 % 0.00 in /  0 mm
04:06 65.3 °F /  18.5 °C 62.6 °F /  17 °C 30.08 in /  1018.5 hPa Calm     91 % 0.00 in /  0 mm
04:11 65.2 °F /  18.4 °C 62.5 °F /  16.9 °C 30.08 in /  1018.5 hPa Calm     91 % 0.00 in /  0 mm
04:16 65.1 °F /  18.4 °C 62.4 °F /  16.9 °C 30.08 in /  1018.5 hPa WNW 0.1 mph /  0.2 km/h 1.2 mph /  1.9 km/h 91 % 0.00 in /  0 mm
04:21 65.0 °F /  18.3 °C 62.6 °F /  17 °C 30.08 in /  1018.5 hPa Calm     92 % 0.00 in /  0 mm
04:26 65.0 °F /  18.3 °C 62.6 °F /  17 °C 30.08 in /  1018.5 hPa NW 1.1 mph /  1.8 km/h 3.5 mph /  5.6 km/h 92 % 0.00 in /  0 mm
04:31 65.0 °F /  18.3 °C 62.6 °F /  17 °C 30.08 in /  1018.5 hPa Calm   1.2 mph /  1.9 km/h 92 % 0.00 in /  0 mm
04:36 65.0 °F /  18.3 °C 62.9 °F /  17.2 °C 30.08 in /  1018.5 hPa Calm     93 % 0.00 in /  0 mm
04:41 65.0 °F /  18.3 °C 62.9 °F /  17.2 °C 30.08 in /  1018.5 hPa Calm     93 % 0.00 in /  0 mm
04:46 65.0 °F /  18.3 °C 62.9 °F /  17.2 °C 30.08 in /  1018.5 hPa Calm     93 % 0.00 in /  0 mm
04:51 64.9 °F /  18.3 °C 62.8 °F /  17.1 °C 30.08 in /  1018.5 hPa Calm     93 % 0.00 in /  0 mm
04:56 64.8 °F /  18.2 °C 62.7 °F /  17.1 °C 30.08 in /  1018.5 hPa Calm     93 % 0.00 in /  0 mm
05:01 64.7 °F /  18.2 °C 62.6 °F /  17 °C 30.08 in /  1018.5 hPa Calm     93 % 0.00 in /  0 mm
05:06 64.6 °F /  18.1 °C 62.2 °F /  16.8 °C 30.09 in /  1018.8 hPa Calm     92 % 0.00 in /  0 mm
05:11 64.4 °F /  18 °C 62.0 °F /  16.7 °C 30.09 in /  1018.8 hPa Calm     92 % 0.00 in /  0 mm
05:16 64.2 °F /  17.9 °C 61.8 °F /  16.6 °C 30.09 in /  1018.8 hPa Calm     92 % 0.00 in /  0 mm
05:21 64.1 °F /  17.8 °C 61.7 °F /  16.5 °C 30.09 in /  1018.8 hPa Calm     92 % 0.00 in /  0 mm
05:26 63.9 °F /  17.7 °C 61.5 °F /  16.4 °C 30.09 in /  1018.8 hPa Calm     92 % 0.00 in /  0 mm
05:31 63.7 °F /  17.6 °C 61.3 °F /  16.3 °C 30.09 in /  1018.8 hPa Calm     92 % 0.00 in /  0 mm
05:36 63.5 °F /  17.5 °C 61.1 °F /  16.2 °C 30.09 in /  1018.8 hPa Calm     92 % 0.00 in /  0 mm
05:41 63.3 °F /  17.4 °C 60.9 °F /  16.1 °C 30.09 in /  1018.8 hPa Calm     92 % 0.00 in /  0 mm
05:46 63.2 °F /  17.3 °C 60.8 °F /  16 °C 30.10 in /  1019.2 hPa Calm     92 % 0.00 in /  0 mm
05:51 63.0 °F /  17.2 °C 60.6 °F /  15.9 °C 30.10 in /  1019.2 hPa Calm     92 % 0.00 in /  0 mm
05:56 62.9 °F /  17.2 °C 60.5 °F /  15.8 °C 30.10 in /  1019.2 hPa Calm     92 % 0.00 in /  0 mm
06:01 62.7 °F /  17.1 °C 60.3 °F /  15.7 °C 30.10 in /  1019.2 hPa Calm     92 % 0.00 in /  0 mm
06:06 62.6 °F /  17 °C 60.2 °F /  15.7 °C 30.11 in /  1019.5 hPa Calm     92 % 0.00 in /  0 mm
06:11 62.4 °F /  16.9 °C 60.0 °F /  15.6 °C 30.11 in /  1019.5 hPa Calm     92 % 0.00 in /  0 mm
06:16 62.3 °F /  16.8 °C 59.9 °F /  15.5 °C 30.11 in /  1019.5 hPa Calm     92 % 0.00 in /  0 mm
06:19 62.2 °F /  16.8 °C 59.8 °F /  15.4 °C 30.11 in /  1019.5 hPa Calm     92 % 0.00 in /  0 mm
06:24 62.2 °F /  16.8 °C 59.8 °F /  15.4 °C 30.11 in /  1019.5 hPa Calm     92 % 0.00 in /  0 mm
06:29 62.1 °F /  16.7 °C 60.1 °F /  15.6 °C 30.12 in /  1019.9 hPa Calm     93 % 0.00 in /  0 mm
06:34 62.0 °F /  16.7 °C 60.0 °F /  15.6 °C 30.12 in /  1019.9 hPa Calm   1.2 mph /  1.9 km/h 93 % 0.00 in /  0 mm
06:39 62.1 °F /  16.7 °C 60.1 °F /  15.6 °C 30.12 in /  1019.9 hPa NW 0.6 mph /  1 km/h 2.3 mph /  3.7 km/h 93 % 0.00 in /  0 mm
06:44 62.2 °F /  16.8 °C 60.5 °F /  15.8 °C 30.12 in /  1019.9 hPa Calm     94 % 0.00 in /  0 mm
06:49 62.4 °F /  16.9 °C 60.9 °F /  16.1 °C 30.12 in /  1019.9 hPa NNE 0.8 mph /  1.3 km/h 3.5 mph /  5.6 km/h 95 % 0.00 in /  0 mm
06:54 62.6 °F /  17 °C 61.1 °F /  16.2 °C 30.13 in /  1020.2 hPa Calm     95 % 0.00 in /  0 mm
06:59 62.7 °F /  17.1 °C 61.2 °F /  16.2 °C 30.13 in /  1020.2 hPa Calm   1.0 mph /  1.6 km/h 95 % 0.00 in /  0 mm
07:04 62.9 °F /  17.2 °C 61.4 °F /  16.3 °C 30.13 in /  1020.2 hPa Calm   3.5 mph /  5.6 km/h 95 % 0.00 in /  0 mm
07:09 63.2 °F /  17.3 °C 62.0 °F /  16.7 °C 30.13 in /  1020.2 hPa North 0.3 mph /  0.5 km/h 2.0 mph /  3.2 km/h 96 % 0.00 in /  0 mm
07:14 63.6 °F /  17.6 °C 62.4 °F /  16.9 °C 30.13 in /  1020.2 hPa Calm   2.3 mph /  3.7 km/h 96 % 0.00 in /  0 mm
07:19 64.0 °F /  17.8 °C 62.8 °F /  17.1 °C 30.13 in /  1020.2 hPa Calm   2.3 mph /  3.7 km/h 96 % 0.00 in /  0 mm
07:24 64.4 °F /  18 °C 63.2 °F /  17.3 °C 30.13 in /  1020.2 hPa North 0.1 mph /  0.2 km/h 1.2 mph /  1.9 km/h 96 % 0.00 in /  0 mm
07:29 64.8 °F /  18.2 °C 63.6 °F /  17.6 °C 30.13 in /  1020.2 hPa Calm   1.2 mph /  1.9 km/h 96 % 0.00 in /  0 mm
07:35 65.1 °F /  18.4 °C 63.9 °F /  17.7 °C 30.13 in /  1020.2 hPa North 0.4 mph /  0.6 km/h 2.3 mph /  3.7 km/h 96 % 0.00 in /  0 mm
07:40 65.4 °F /  18.6 °C 64.2 °F /  17.9 °C 30.13 in /  1020.2 hPa North 0.3 mph /  0.5 km/h 2.3 mph /  3.7 km/h 96 % 0.00 in /  0 mm
07:45 65.6 °F /  18.7 °C 64.1 °F /  17.8 °C 30.14 in /  1020.5 hPa Calm   1.2 mph /  1.9 km/h 95 % 0.00 in /  0 mm
07:50 65.8 °F /  18.8 °C 64.0 °F /  17.8 °C 30.14 in /  1020.5 hPa WNW 0.4 mph /  0.6 km/h 2.3 mph /  3.7 km/h 94 % 0.00 in /  0 mm
07:55 65.9 °F /  18.8 °C 63.8 °F /  17.7 °C 30.14 in /  1020.5 hPa Calm   2.3 mph /  3.7 km/h 93 % 0.00 in /  0 mm
08:00 66.1 °F /  18.9 °C 63.4 °F /  17.4 °C 30.14 in /  1020.5 hPa Calm     91 % 0.00 in /  0 mm
08:05 66.4 °F /  19.1 °C 63.7 °F /  17.6 °C 30.14 in /  1020.5 hPa WNW 0.1 mph /  0.2 km/h 1.2 mph /  1.9 km/h 91 % 0.00 in /  0 mm
08:10 66.6 °F /  19.2 °C 63.3 °F /  17.4 °C 30.14 in /  1020.5 hPa North 1.6 mph /  2.6 km/h 3.5 mph /  5.6 km/h 89 % 0.00 in /  0 mm
08:15 66.7 °F /  19.3 °C 63.0 °F /  17.2 °C 30.14 in /  1020.5 hPa Calm     88 % 0.00 in /  0 mm
08:20 66.9 °F /  19.4 °C 63.2 °F /  17.3 °C 30.14 in /  1020.5 hPa North 1.1 mph /  1.8 km/h 2.3 mph /  3.7 km/h 88 % 0.00 in /  0 mm
08:25 67.1 °F /  19.5 °C 63.4 °F /  17.4 °C 30.14 in /  1020.5 hPa Calm   2.3 mph /  3.7 km/h 88 % 0.00 in /  0 mm
08:30 67.2 °F /  19.6 °C 62.9 °F /  17.2 °C 30.15 in /  1020.9 hPa Calm   1.0 mph /  1.6 km/h 86 % 0.00 in /  0 mm
08:35 67.4 °F /  19.7 °C 63.1 °F /  17.3 °C 30.15 in /  1020.9 hPa North 1.2 mph /  1.9 km/h 2.3 mph /  3.7 km/h 86 % 0.00 in /  0 mm
08:40 67.5 °F /  19.7 °C 63.2 °F /  17.3 °C 30.15 in /  1020.9 hPa North 0.1 mph /  0.2 km/h 1.2 mph /  1.9 km/h 86 % 0.00 in /  0 mm
08:45 67.6 °F /  19.8 °C 63.3 °F /  17.4 °C 30.15 in /  1020.9 hPa North 1.6 mph /  2.6 km/h 3.5 mph /  5.6 km/h 86 % 0.00 in /  0 mm
08:50 67.7 °F /  19.8 °C 63.0 °F /  17.2 °C 30.15 in /  1020.9 hPa North 0.5 mph /  0.8 km/h 2.0 mph /  3.2 km/h 85 % 0.00 in /  0 mm
08:55 67.8 °F /  19.9 °C 63.1 °F /  17.3 °C 30.15 in /  1020.9 hPa Calm     85 % 0.00 in /  0 mm
09:00 67.9 °F /  19.9 °C 63.2 °F /  17.3 °C 30.15 in /  1020.9 hPa North 0.5 mph /  0.8 km/h 2.0 mph /  3.2 km/h 85 % 0.00 in /  0 mm
09:05 68.1 °F /  20.1 °C 63.1 °F /  17.3 °C 30.15 in /  1020.9 hPa North 0.7 mph /  1.1 km/h 2.3 mph /  3.7 km/h 84 % 0.00 in /  0 mm
09:10 68.2 °F /  20.1 °C 62.8 °F /  17.1 °C 30.15 in /  1020.9 hPa Calm   1.2 mph /  1.9 km/h 83 % 0.00 in /  0 mm
09:15 68.4 °F /  20.2 °C 62.3 °F /  16.8 °C 30.15 in /  1020.9 hPa North 0.8 mph /  1.3 km/h 3.5 mph /  5.6 km/h 81 % 0.00 in /  0 mm
09:20 68.6 °F /  20.3 °C 62.5 °F /  16.9 °C 30.15 in /  1020.9 hPa Calm     81 % 0.00 in /  0 mm
09:25 68.7 °F /  20.4 °C 62.3 °F /  16.8 °C 30.16 in /  1021.2 hPa NNE 1.4 mph /  2.3 km/h 2.0 mph /  3.2 km/h 80 % 0.00 in /  0 mm
09:30 68.9 °F /  20.5 °C 62.8 °F /  17.1 °C 30.15 in /  1020.9 hPa NNE 2.4 mph /  3.9 km/h 3.5 mph /  5.6 km/h 81 % 0.00 in /  0 mm
09:35 69.1 °F /  20.6 °C 62.7 °F /  17.1 °C 30.16 in /  1021.2 hPa NNE 0.6 mph /  1 km/h 3.5 mph /  5.6 km/h 80 % 0.00 in /  0 mm
09:40 69.3 °F /  20.7 °C 62.1 °F /  16.7 °C 30.16 in /  1021.2 hPa NNE 0.1 mph /  0.2 km/h 1.2 mph /  1.9 km/h 78 % 0.00 in /  0 mm
09:45 69.5 °F /  20.8 °C 62.7 °F /  17.1 °C 30.16 in /  1021.2 hPa NE 1.3 mph /  2.1 km/h 3.5 mph /  5.6 km/h 79 % 0.00 in /  0 mm
09:50 69.8 °F /  21 °C 61.5 °F /  16.4 °C 30.16 in /  1021.2 hPa NNE 1.0 mph /  1.6 km/h 2.3 mph /  3.7 km/h 75 % 0.00 in /  0 mm
09:53 69.9 °F /  21.1 °C 62.0 °F /  16.7 °C 30.16 in /  1021.2 hPa NNE 2.2 mph /  3.5 km/h 3.0 mph /  4.8 km/h 76 % 0.00 in /  0 mm
09:58 70.3 °F /  21.3 °C 62.4 °F /  16.9 °C 30.16 in /  1021.2 hPa Calm   1.2 mph /  1.9 km/h 76 % 0.00 in /  0 mm
10:03 70.7 °F /  21.5 °C 62.4 °F /  16.9 °C 30.16 in /  1021.2 hPa NNW 0.2 mph /  0.3 km/h 1.2 mph /  1.9 km/h 75 % 0.00 in /  0 mm
10:08 71.4 °F /  21.9 °C 62.7 °F /  17.1 °C 30.16 in /  1021.2 hPa NNW 2.0 mph /  3.2 km/h 3.5 mph /  5.6 km/h 74 % 0.00 in /  0 mm
10:13 72.1 °F /  22.3 °C 61.4 °F /  16.3 °C 30.16 in /  1021.2 hPa Calm   1.2 mph /  1.9 km/h 69 % 0.00 in /  0 mm
10:18 73.3 °F /  22.9 °C 64.1 °F /  17.8 °C 30.16 in /  1021.2 hPa NW 0.7 mph /  1.1 km/h 2.3 mph /  3.7 km/h 73 % 0.00 in /  0 mm
10:23 74.4 °F /  23.6 °C 61.9 °F /  16.6 °C 30.16 in /  1021.2 hPa NW 1.5 mph /  2.4 km/h 4.0 mph /  6.4 km/h 65 % 0.00 in /  0 mm
10:28 75.3 °F /  24.1 °C 62.7 °F /  17.1 °C 30.16 in /  1021.2 hPa North 1.9 mph /  3.1 km/h 3.5 mph /  5.6 km/h 65 % 0.00 in /  0 mm
10:33 76.4 °F /  24.7 °C 62.9 °F /  17.2 °C 30.16 in /  1021.2 hPa WNW 0.3 mph /  0.5 km/h 2.3 mph /  3.7 km/h 63 % 0.00 in /  0 mm
10:38 77.2 °F /  25.1 °C 63.2 °F /  17.3 °C 30.16 in /  1021.2 hPa North 0.7 mph /  1.1 km/h 2.3 mph /  3.7 km/h 62 % 0.00 in /  0 mm
10:43 78.3 °F /  25.7 °C 64.2 °F /  17.9 °C 30.16 in /  1021.2 hPa NNE 3.2 mph /  5.1 km/h 4.6 mph /  7.4 km/h 62 % 0.00 in /  0 mm
10:48 79.0 °F /  26.1 °C 64.9 °F /  18.3 °C 30.16 in /  1021.2 hPa NNE 0.9 mph /  1.4 km/h 2.3 mph /  3.7 km/h 62 % 0.00 in /  0 mm
10:53 79.7 °F /  26.5 °C 64.6 °F /  18.1 °C 30.17 in /  1021.6 hPa WNW 2.6 mph /  4.2 km/h 4.6 mph /  7.4 km/h 60 % 0.00 in /  0 mm
10:58 80.2 °F /  26.8 °C 65.5 °F /  18.6 °C 30.17 in /  1021.6 hPa WNW 1.6 mph /  2.6 km/h 4.0 mph /  6.4 km/h 61 % 0.00 in /  0 mm
11:03 80.5 °F /  26.9 °C 64.4 °F /  18 °C 30.16 in /  1021.2 hPa NW 0.1 mph /  0.2 km/h 2.3 mph /  3.7 km/h 58 % 0.00 in /  0 mm
11:08 81.1 °F /  27.3 °C 62.9 °F /  17.2 °C 30.17 in /  1021.6 hPa WNW 1.7 mph /  2.7 km/h 3.5 mph /  5.6 km/h 54 % 0.00 in /  0 mm
11:13 81.5 °F /  27.5 °C 61.6 °F /  16.4 °C 30.16 in /  1021.2 hPa WNW 0.4 mph /  0.6 km/h 1.2 mph /  1.9 km/h 51 % 0.00 in /  0 mm
11:18 81.7 °F /  27.6 °C 61.8 °F /  16.6 °C 30.17 in /  1021.6 hPa WNW 1.7 mph /  2.7 km/h 3.5 mph /  5.6 km/h 51 % 0.00 in /  0 mm
11:23 82.0 °F /  27.8 °C 59.2 °F /  15.1 °C 30.16 in /  1021.2 hPa Calm   1.0 mph /  1.6 km/h 46 % 0.00 in /  0 mm
11:28 82.4 °F /  28 °C 63.5 °F /  17.5 °C 30.17 in /  1021.6 hPa North 0.2 mph /  0.3 km/h 3.5 mph /  5.6 km/h 53 % 0.00 in /  0 mm
11:33 82.8 °F /  28.2 °C 62.3 °F /  16.8 °C 30.17 in /  1021.6 hPa NW 1.1 mph /  1.8 km/h 4.0 mph /  6.4 km/h 50 % 0.00 in /  0 mm
11:38 83.1 °F /  28.4 °C 60.2 °F /  15.7 °C 30.17 in /  1021.6 hPa NNE 1.0 mph /  1.6 km/h 3.5 mph /  5.6 km/h 46 % 0.00 in /  0 mm
11:43 83.3 °F /  28.5 °C 59.7 °F /  15.4 °C 30.17 in /  1021.6 hPa North 2.1 mph /  3.4 km/h 3.5 mph /  5.6 km/h 45 % 0.00 in /  0 mm
11:48 83.6 °F /  28.7 °C 63.0 °F /  17.2 °C 30.17 in /  1021.6 hPa NNW 1.0 mph /  1.6 km/h 2.0 mph /  3.2 km/h 50 % 0.00 in /  0 mm
11:53 84.1 °F /  28.9 °C 63.5 °F /  17.5 °C 30.16 in /  1021.2 hPa North 1.4 mph /  2.3 km/h 4.0 mph /  6.4 km/h 50 % 0.00 in /  0 mm
11:58 84.4 °F /  29.1 °C 62.0 °F /  16.7 °C 30.16 in /  1021.2 hPa NNE 0.7 mph /  1.1 km/h 2.3 mph /  3.7 km/h 47 % 0.00 in /  0 mm
12:03 84.7 °F /  29.3 °C 61.0 °F /  16.1 °C 30.16 in /  1021.2 hPa NNE 4.0 mph /  6.4 km/h 6.0 mph /  9.7 km/h 45 % 0.00 in /  0 mm
12:08 84.8 °F /  29.3 °C 59.8 °F /  15.4 °C 30.16 in /  1021.2 hPa NW 0.6 mph /  1 km/h 3.5 mph /  5.6 km/h 43 % 0.00 in /  0 mm
12:14 85.1 °F /  29.5 °C 58.8 °F /  14.9 °C 30.16 in /  1021.2 hPa North 0.3 mph /  0.5 km/h 2.3 mph /  3.7 km/h 41 % 0.00 in /  0 mm
12:19 85.4 °F /  29.7 °C 61.6 °F /  16.4 °C 30.16 in /  1021.2 hPa North 1.7 mph /  2.7 km/h 4.0 mph /  6.4 km/h 45 % 0.00 in /  0 mm
12:24 85.7 °F /  29.8 °C 62.5 °F /  16.9 °C 30.16 in /  1021.2 hPa North 0.6 mph /  1 km/h 2.3 mph /  3.7 km/h 46 % 0.00 in /  0 mm
12:29 86.0 °F /  30 °C 60.9 °F /  16.1 °C 30.16 in /  1021.2 hPa North 1.3 mph /  2.1 km/h 2.3 mph /  3.7 km/h 43 % 0.00 in /  0 mm
12:34 86.3 °F /  30.2 °C 62.5 °F /  16.9 °C 30.16 in /  1021.2 hPa North 3.9 mph /  6.3 km/h 4.6 mph /  7.4 km/h 45 % 0.00 in /  0 mm
12:39 86.4 °F /  30.2 °C 61.9 °F /  16.6 °C 30.16 in /  1021.2 hPa North 1.3 mph /  2.1 km/h 3.5 mph /  5.6 km/h 44 % 0.00 in /  0 mm
12:43 86.4 °F /  30.2 °C 60.6 °F /  15.9 °C 30.16 in /  1021.2 hPa NNE 0.8 mph /  1.3 km/h 3.5 mph /  5.6 km/h 42 % 0.00 in /  0 mm
12:48 86.4 °F /  30.2 °C 59.9 °F /  15.5 °C 30.16 in /  1021.2 hPa Calm   1.2 mph /  1.9 km/h 41 % 0.00 in /  0 mm
12:53 86.4 °F /  30.2 °C 62.5 °F /  16.9 °C 30.15 in /  1020.9 hPa North 0.3 mph /  0.5 km/h 2.3 mph /  3.7 km/h 45 % 0.00 in /  0 mm
12:58 86.5 °F /  30.3 °C 61.3 °F /  16.3 °C 30.15 in /  1020.9 hPa NNE 1.6 mph /  2.6 km/h 3.5 mph /  5.6 km/h 43 % 0.00 in /  0 mm
13:03 86.4 °F /  30.2 °C 60.6 °F /  15.9 °C 30.16 in /  1021.2 hPa NE 0.6 mph /  1 km/h 2.3 mph /  3.7 km/h 42 % 0.00 in /  0 mm
13:08 86.2 °F /  30.1 °C 59.7 °F /  15.4 °C 30.15 in /  1020.9 hPa NE 1.1 mph /  1.8 km/h 3.5 mph /  5.6 km/h 41 % 0.00 in /  0 mm
13:13 86.0 °F /  30 °C 59.6 °F /  15.3 °C 30.16 in /  1021.2 hPa NE 0.4 mph /  0.6 km/h 2.3 mph /  3.7 km/h 41 % 0.00 in /  0 mm
13:18 86.0 °F /  30 °C 60.9 °F /  16.1 °C 30.16 in /  1021.2 hPa NE 0.3 mph /  0.5 km/h 2.3 mph /  3.7 km/h 43 % 0.00 in /  0 mm
13:23 85.9 °F /  29.9 °C 61.5 °F /  16.4 °C 30.16 in /  1021.2 hPa NE 0.1 mph /  0.2 km/h 1.2 mph /  1.9 km/h 44 % 0.00 in /  0 mm
13:28 85.9 °F /  29.9 °C 60.1 °F /  15.6 °C 30.15 in /  1020.9 hPa Calm     42 % 0.00 in /  0 mm
13:33 85.9 °F /  29.9 °C 59.5 °F /  15.3 °C 30.15 in /  1020.9 hPa NE 0.2 mph /  0.3 km/h 1.2 mph /  1.9 km/h 41 % 0.00 in /  0 mm
13:38 86.2 °F /  30.1 °C 61.7 °F /  16.5 °C 30.15 in /  1020.9 hPa NNW 2.2 mph /  3.5 km/h 3.0 mph /  4.8 km/h 44 % 0.00 in /  0 mm
13:44 86.5 °F /  30.3 °C 61.3 °F /  16.3 °C 30.15 in /  1020.9 hPa NE 1.2 mph /  1.9 km/h 4.0 mph /  6.4 km/h 43 % 0.00 in /  0 mm
13:49 86.3 °F /  30.2 °C 57.7 °F /  14.3 °C 30.15 in /  1020.9 hPa NNE 1.1 mph /  1.8 km/h 3.5 mph /  5.6 km/h 38 % 0.00 in /  0 mm
13:50 86.3 °F /  30.2 °C 60.5 °F /  15.8 °C 30.15 in /  1020.9 hPa NNE 0.5 mph /  0.8 km/h 1.2 mph /  1.9 km/h 42 % 0.00 in /  0 mm
13:55 86.2 °F /  30.1 °C 57.6 °F /  14.2 °C 30.15 in /  1020.9 hPa NE 1.6 mph /  2.6 km/h 2.3 mph /  3.7 km/h 38 % 0.00 in /  0 mm
14:00 86.1 °F /  30.1 °C 60.3 °F /  15.7 °C 30.14 in /  1020.5 hPa Calm     42 % 0.00 in /  0 mm
14:05 86.0 °F /  30 °C 60.2 °F /  15.7 °C 30.15 in /  1020.9 hPa ENE 1.0 mph /  1.6 km/h 3.5 mph /  5.6 km/h 42 % 0.00 in /  0 mm
14:10 85.9 °F /  29.9 °C 60.1 °F /  15.6 °C 30.14 in /  1020.5 hPa ENE 0.6 mph /  1 km/h 2.3 mph /  3.7 km/h 42 % 0.00 in /  0 mm
14:15 85.9 °F /  29.9 °C 58.8 °F /  14.9 °C 30.14 in /  1020.5 hPa ENE 0.5 mph /  0.8 km/h 1.2 mph /  1.9 km/h 40 % 0.00 in /  0 mm
14:21 86.1 °F /  30.1 °C 60.3 °F /  15.7 °C 30.14 in /  1020.5 hPa ENE 1.1 mph /  1.8 km/h 2.3 mph /  3.7 km/h 42 % 0.00 in /  0 mm
14:25 86.0 °F /  30 °C 59.6 °F /  15.3 °C 30.14 in /  1020.5 hPa Calm   1.2 mph /  1.9 km/h 41 % 0.00 in /  0 mm
14:30 86.0 °F /  30 °C 58.2 °F /  14.6 °C 30.14 in /  1020.5 hPa NE 1.5 mph /  2.4 km/h 3.0 mph /  4.8 km/h 39 % 0.00 in /  0 mm
14:35 85.8 °F /  29.9 °C 58.7 °F /  14.8 °C 30.14 in /  1020.5 hPa NE 1.3 mph /  2.1 km/h 3.5 mph /  5.6 km/h 40 % 0.00 in /  0 mm
14:40 85.7 °F /  29.8 °C 60.0 °F /  15.6 °C 30.14 in /  1020.5 hPa NE 0.2 mph /  0.3 km/h 1.2 mph /  1.9 km/h 42 % 0.00 in /  0 mm
14:45 85.7 °F /  29.8 °C 60.6 °F /  15.9 °C 30.14 in /  1020.5 hPa NE 0.4 mph /  0.6 km/h 1.2 mph /  1.9 km/h 43 % 0.00 in /  0 mm
14:50 85.8 °F /  29.9 °C 60.1 °F /  15.6 °C 30.14 in /  1020.5 hPa NE 1.0 mph /  1.6 km/h 3.5 mph /  5.6 km/h 42 % 0.00 in /  0 mm
14:55 85.7 °F /  29.8 °C 58.6 °F /  14.8 °C 30.14 in /  1020.5 hPa Calm   2.3 mph /  3.7 km/h 40 % 0.00 in /  0 mm
15:00 85.7 °F /  29.8 °C 59.3 °F /  15.2 °C 30.14 in /  1020.5 hPa NNE 1.4 mph /  2.3 km/h 3.5 mph /  5.6 km/h 41 % 0.00 in /  0 mm
15:05 85.8 °F /  29.9 °C 60.7 °F /  15.9 °C 30.14 in /  1020.5 hPa NE 0.4 mph /  0.6 km/h 2.3 mph /  3.7 km/h 43 % 0.00 in /  0 mm
15:10 85.7 °F /  29.8 °C 59.3 °F /  15.2 °C 30.13 in /  1020.2 hPa NE 1.6 mph /  2.6 km/h 4.0 mph /  6.4 km/h 41 % 0.00 in /  0 mm
15:16 85.7 °F /  29.8 °C 60.0 °F /  15.6 °C 30.14 in /  1020.5 hPa Calm   1.2 mph /  1.9 km/h 42 % 0.00 in /  0 mm
15:21 85.8 °F /  29.9 °C 60.1 °F /  15.6 °C 30.14 in /  1020.5 hPa ENE 1.0 mph /  1.6 km/h 2.0 mph /  3.2 km/h 42 % 0.00 in /  0 mm
15:26 85.7 °F /  29.8 °C 60.6 °F /  15.9 °C 30.14 in /  1020.5 hPa Calm   3.0 mph /  4.8 km/h 43 % 0.00 in /  0 mm
15:31 85.7 °F /  29.8 °C 61.3 °F /  16.3 °C 30.14 in /  1020.5 hPa NE 1.0 mph /  1.6 km/h 3.0 mph /  4.8 km/h 44 % 0.00 in /  0 mm
15:36 85.6 °F /  29.8 °C 59.9 °F /  15.5 °C 30.14 in /  1020.5 hPa ENE 1.0 mph /  1.6 km/h 2.0 mph /  3.2 km/h 42 % 0.00 in /  0 mm
15:41 85.6 °F /  29.8 °C 60.5 °F /  15.8 °C 30.13 in /  1020.2 hPa Calm   1.0 mph /  1.6 km/h 43 % 0.00 in /  0 mm
15:46 85.6 °F /  29.8 °C 59.2 °F /  15.1 °C 30.13 in /  1020.2 hPa NE 1.0 mph /  1.6 km/h 3.0 mph /  4.8 km/h 41 % 0.00 in /  0 mm
15:51 85.5 °F /  29.7 °C 60.4 °F /  15.8 °C 30.13 in /  1020.2 hPa NE 1.0 mph /  1.6 km/h 4.0 mph /  6.4 km/h 43 % 0.00 in /  0 mm
15:56 85.6 °F /  29.8 °C 60.5 °F /  15.8 °C 30.13 in /  1020.2 hPa Calm   1.0 mph /  1.6 km/h 43 % 0.00 in /  0 mm
16:01 85.6 °F /  29.8 °C 59.9 °F /  15.5 °C 30.13 in /  1020.2 hPa ENE 0.5 mph /  0.8 km/h 3.5 mph /  5.6 km/h 42 % 0.00 in /  0 mm
16:06 85.6 °F /  29.8 °C 60.5 °F /  15.8 °C 30.12 in /  1019.9 hPa ENE 0.3 mph /  0.5 km/h 2.3 mph /  3.7 km/h 43 % 0.00 in /  0 mm
16:11 85.6 °F /  29.8 °C 60.5 °F /  15.8 °C 30.13 in /  1020.2 hPa NE 0.2 mph /  0.3 km/h 3.5 mph /  5.6 km/h 43 % 0.00 in /  0 mm
16:16 85.6 °F /  29.8 °C 61.8 °F /  16.6 °C 30.12 in /  1019.9 hPa NE 0.2 mph /  0.3 km/h 1.2 mph /  1.9 km/h 45 % 0.00 in /  0 mm
16:21 85.8 °F /  29.9 °C 61.4 °F /  16.3 °C 30.12 in /  1019.9 hPa NE 0.4 mph /  0.6 km/h 2.3 mph /  3.7 km/h 44 % 0.00 in /  0 mm
16:26 85.9 °F /  29.9 °C 62.1 °F /  16.7 °C 30.12 in /  1019.9 hPa Calm     45 % 0.00 in /  0 mm
16:31 86.1 °F /  30.1 °C 59.6 °F /  15.3 °C 30.12 in /  1019.9 hPa NE 0.5 mph /  0.8 km/h 2.3 mph /  3.7 km/h 41 % 0.00 in /  0 mm
16:36 86.2 °F /  30.1 °C 59.7 °F /  15.4 °C 30.13 in /  1020.2 hPa NE 0.5 mph /  0.8 km/h 1.2 mph /  1.9 km/h 41 % 0.00 in /  0 mm
16:41 86.1 °F /  30.1 °C 59.6 °F /  15.3 °C 30.12 in /  1019.9 hPa NNE 0.3 mph /  0.5 km/h 1.2 mph /  1.9 km/h 41 % 0.00 in /  0 mm
16:46 86.1 °F /  30.1 °C 61.6 °F /  16.4 °C 30.12 in /  1019.9 hPa Calm     44 % 0.00 in /  0 mm
16:51 86.1 °F /  30.1 °C 61.0 °F /  16.1 °C 30.12 in /  1019.9 hPa Calm     43 % 0.00 in /  0 mm
16:56 86.1 °F /  30.1 °C 61.0 °F /  16.1 °C 30.12 in /  1019.9 hPa Calm     43 % 0.00 in /  0 mm
17:01 86.2 °F /  30.1 °C 59.7 °F /  15.4 °C 30.12 in /  1019.9 hPa WSW 2.0 mph /  3.2 km/h 3.5 mph /  5.6 km/h 41 % 0.00 in /  0 mm
17:06 86.5 °F /  30.3 °C 60.7 °F /  15.9 °C 30.12 in /  1019.9 hPa Calm   1.2 mph /  1.9 km/h 42 % 0.00 in /  0 mm
17:11 86.2 °F /  30.1 °C 61.1 °F /  16.2 °C 30.12 in /  1019.9 hPa Calm     43 % 0.00 in /  0 mm
17:16 85.9 °F /  29.9 °C 62.7 °F /  17.1 °C 30.12 in /  1019.9 hPa SSW 0.2 mph /  0.3 km/h 3.5 mph /  5.6 km/h 46 % 0.00 in /  0 mm
17:21 86.0 °F /  30 °C 64.0 °F /  17.8 °C 30.12 in /  1019.9 hPa Calm   1.2 mph /  1.9 km/h 48 % 0.00 in /  0 mm
17:26 86.1 °F /  30.1 °C 63.5 °F /  17.5 °C 30.12 in /  1019.9 hPa SE 1.6 mph /  2.6 km/h 3.0 mph /  4.8 km/h 47 % 0.00 in /  0 mm
17:31 85.7 °F /  29.8 °C 64.3 °F /  17.9 °C 30.12 in /  1019.9 hPa WSW 0.8 mph /  1.3 km/h 3.5 mph /  5.6 km/h 49 % 0.00 in /  0 mm
17:36 85.6 °F /  29.8 °C 63.1 °F /  17.3 °C 30.12 in /  1019.9 hPa SE 3.2 mph /  5.1 km/h 5.0 mph /  8 km/h 47 % 0.00 in /  0 mm
17:41 85.0 °F /  29.4 °C 62.5 °F /  16.9 °C 30.11 in /  1019.5 hPa SE 1.6 mph /  2.6 km/h 4.6 mph /  7.4 km/h 47 % 0.00 in /  0 mm
17:46 84.5 °F /  29.2 °C 63.2 °F /  17.3 °C 30.12 in /  1019.9 hPa SE 2.8 mph /  4.5 km/h 5.8 mph /  9.3 km/h 49 % 0.00 in /  0 mm
17:51 83.9 °F /  28.8 °C 63.3 °F /  17.4 °C 30.11 in /  1019.5 hPa SE 1.4 mph /  2.3 km/h 2.3 mph /  3.7 km/h 50 % 0.00 in /  0 mm
17:56 83.4 °F /  28.6 °C 63.4 °F /  17.4 °C 30.11 in /  1019.5 hPa SSE 0.4 mph /  0.6 km/h 2.3 mph /  3.7 km/h 51 % 0.00 in /  0 mm
18:01 83.1 °F /  28.4 °C 63.7 °F /  17.6 °C 30.11 in /  1019.5 hPa SSW 0.2 mph /  0.3 km/h 1.2 mph /  1.9 km/h 52 % 0.00 in /  0 mm
18:06 82.7 °F /  28.2 °C 62.7 °F /  17.1 °C 30.12 in /  1019.9 hPa WSW 0.2 mph /  0.3 km/h 2.0 mph /  3.2 km/h 51 % 0.00 in /  0 mm
18:11 82.4 °F /  28 °C 63.5 °F /  17.5 °C 30.12 in /  1019.9 hPa SE 3.8 mph /  6.1 km/h 5.8 mph /  9.3 km/h 53 % 0.00 in /  0 mm
18:16 81.8 °F /  27.7 °C 63.5 °F /  17.5 °C 30.12 in /  1019.9 hPa SE 1.3 mph /  2.1 km/h 3.5 mph /  5.6 km/h 54 % 0.00 in /  0 mm
18:21 81.4 °F /  27.4 °C 63.7 °F /  17.6 °C 30.12 in /  1019.9 hPa SE 1.3 mph /  2.1 km/h 9.2 mph /  14.8 km/h 55 % 0.00 in /  0 mm
18:27 81.0 °F /  27.2 °C 63.8 °F /  17.7 °C 30.12 in /  1019.9 hPa SE 0.2 mph /  0.3 km/h 1.2 mph /  1.9 km/h 56 % 0.00 in /  0 mm
18:32 80.8 °F /  27.1 °C 63.6 °F /  17.6 °C 30.12 in /  1019.9 hPa SE 0.9 mph /  1.4 km/h 3.5 mph /  5.6 km/h 56 % 0.00 in /  0 mm
18:37 80.5 °F /  26.9 °C 63.4 °F /  17.4 °C 30.13 in /  1020.2 hPa SSE 0.1 mph /  0.2 km/h 2.3 mph /  3.7 km/h 56 % 0.00 in /  0 mm
18:42 80.3 °F /  26.8 °C 63.7 °F /  17.6 °C 30.13 in /  1020.2 hPa SSE 0.2 mph /  0.3 km/h 2.3 mph /  3.7 km/h 57 % 0.00 in /  0 mm
18:47 80.1 °F /  26.7 °C 63.5 °F /  17.5 °C 30.13 in /  1020.2 hPa SSE 1.7 mph /  2.7 km/h 4.6 mph /  7.4 km/h 57 % 0.00 in /  0 mm
18:52 79.7 °F /  26.5 °C 63.1 °F /  17.3 °C 30.13 in /  1020.2 hPa SE 0.2 mph /  0.3 km/h 1.2 mph /  1.9 km/h 57 % 0.00 in /  0 mm
18:54 79.6 °F /  26.4 °C 63.5 °F /  17.5 °C 30.13 in /  1020.2 hPa Calm   2.3 mph /  3.7 km/h 58 % 0.00 in /  0 mm
18:59 79.3 °F /  26.3 °C 63.2 °F /  17.3 °C 30.14 in /  1020.5 hPa SSE 0.2 mph /  0.3 km/h 1.2 mph /  1.9 km/h 58 % 0.00 in /  0 mm
19:04 79.1 °F /  26.2 °C 63.1 °F /  17.3 °C 30.14 in /  1020.5 hPa SSW 0.4 mph /  0.6 km/h 3.5 mph /  5.6 km/h 58 % 0.00 in /  0 mm
19:09 78.9 °F /  26.1 °C 63.4 °F /  17.4 °C 30.14 in /  1020.5 hPa SE 1.0 mph /  1.6 km/h 3.5 mph /  5.6 km/h 59 % 0.00 in /  0 mm
19:14 78.6 °F /  25.9 °C 63.1 °F /  17.3 °C 30.14 in /  1020.5 hPa SE 1.6 mph /  2.6 km/h 4.6 mph /  7.4 km/h 59 % 0.00 in /  0 mm
19:19 78.3 °F /  25.7 °C 63.3 °F /  17.4 °C 30.14 in /  1020.5 hPa SE 0.5 mph /  0.8 km/h 1.2 mph /  1.9 km/h 60 % 0.00 in /  0 mm
19:24 78.1 °F /  25.6 °C 63.1 °F /  17.3 °C 30.14 in /  1020.5 hPa SE 0.1 mph /  0.2 km/h 2.3 mph /  3.7 km/h 60 % 0.00 in /  0 mm
19:29 77.7 °F /  25.4 °C 63.2 °F /  17.3 °C 30.14 in /  1020.5 hPa Calm     61 % 0.00 in /  0 mm
19:34 77.5 °F /  25.3 °C 63.5 °F /  17.5 °C 30.14 in /  1020.5 hPa SE 0.1 mph /  0.2 km/h 1.2 mph /  1.9 km/h 62 % 0.00 in /  0 mm
19:39 77.3 °F /  25.2 °C 63.3 °F /  17.4 °C 30.14 in /  1020.5 hPa Calm     62 % 0.00 in /  0 mm
19:44 77.1 °F /  25.1 °C 63.5 °F /  17.5 °C 30.14 in /  1020.5 hPa Calm   1.2 mph /  1.9 km/h 63 % 0.00 in /  0 mm
19:49 76.9 °F /  24.9 °C 63.8 °F /  17.7 °C 30.15 in /  1020.9 hPa Calm     64 % 0.00 in /  0 mm
19:54 76.6 °F /  24.8 °C 63.5 °F /  17.5 °C 30.15 in /  1020.9 hPa SE 0.1 mph /  0.2 km/h 1.0 mph /  1.6 km/h 64 % 0.00 in /  0 mm
19:59 76.3 °F /  24.6 °C 63.7 °F /  17.6 °C 30.15 in /  1020.9 hPa Calm     65 % 0.00 in /  0 mm
20:04 75.9 °F /  24.4 °C 63.7 °F /  17.6 °C 30.15 in /  1020.9 hPa Calm     66 % 0.00 in /  0 mm
20:09 75.6 °F /  24.2 °C 63.9 °F /  17.7 °C 30.15 in /  1020.9 hPa SE 0.3 mph /  0.5 km/h 1.2 mph /  1.9 km/h 67 % 0.00 in /  0 mm
20:14 75.2 °F /  24 °C 63.5 °F /  17.5 °C 30.15 in /  1020.9 hPa Calm     67 % 0.00 in /  0 mm
20:19 75.0 °F /  23.9 °C 63.7 °F /  17.6 °C 30.15 in /  1020.9 hPa SE 0.2 mph /  0.3 km/h 2.3 mph /  3.7 km/h 68 % 0.00 in /  0 mm
20:24 74.7 °F /  23.7 °C 63.9 °F /  17.7 °C 30.15 in /  1020.9 hPa Calm     69 % 0.00 in /  0 mm
20:29 74.4 °F /  23.6 °C 64.0 °F /  17.8 °C 30.15 in /  1020.9 hPa SE 0.5 mph /  0.8 km/h 3.0 mph /  4.8 km/h 70 % 0.00 in /  0 mm
20:34 74.2 °F /  23.4 °C 63.8 °F /  17.7 °C 30.15 in /  1020.9 hPa Calm   2.3 mph /  3.7 km/h 70 % 0.00 in /  0 mm
20:39 74.1 °F /  23.4 °C 63.7 °F /  17.6 °C 30.16 in /  1021.2 hPa Calm   1.2 mph /  1.9 km/h 70 % 0.00 in /  0 mm
20:44 74.0 °F /  23.3 °C 64.0 °F /  17.8 °C 30.16 in /  1021.2 hPa SE 0.1 mph /  0.2 km/h   71 % 0.00 in /  0 mm
20:49 73.8 °F /  23.2 °C 63.8 °F /  17.7 °C 30.16 in /  1021.2 hPa SE 0.1 mph /  0.2 km/h 1.2 mph /  1.9 km/h 71 % 0.00 in /  0 mm
20:54 73.6 °F /  23.1 °C 64.0 °F /  17.8 °C 30.16 in /  1021.2 hPa SE 0.1 mph /  0.2 km/h   72 % 0.00 in /  0 mm
20:59 73.4 °F /  23 °C 63.8 °F /  17.7 °C 30.16 in /  1021.2 hPa SW 0.1 mph /  0.2 km/h   72 % 0.00 in /  0 mm
21:04 73.2 °F /  22.9 °C 64.0 °F /  17.8 °C 30.17 in /  1021.6 hPa Calm   1.2 mph /  1.9 km/h 73 % 0.00 in /  0 mm
21:09 73.0 °F /  22.8 °C 64.2 °F /  17.9 °C 30.17 in /  1021.6 hPa SW 0.1 mph /  0.2 km/h 1.2 mph /  1.9 km/h 74 % 0.00 in /  0 mm
21:14 72.8 °F /  22.7 °C 64.4 °F /  18 °C 30.17 in /  1021.6 hPa Calm   1.2 mph /  1.9 km/h 75 % 0.00 in /  0 mm
21:20 72.6 °F /  22.6 °C 64.6 °F /  18.1 °C 30.17 in /  1021.6 hPa Calm   1.2 mph /  1.9 km/h 76 % 0.00 in /  0 mm
21:25 72.3 °F /  22.4 °C 64.3 °F /  17.9 °C 30.17 in /  1021.6 hPa Calm     76 % 0.00 in /  0 mm
21:30 72.2 °F /  22.3 °C 64.6 °F /  18.1 °C 30.17 in /  1021.6 hPa Calm   1.2 mph /  1.9 km/h 77 % 0.00 in /  0 mm
21:35 72.0 °F /  22.2 °C 64.8 °F /  18.2 °C 30.17 in /  1021.6 hPa Calm     78 % 0.00 in /  0 mm
21:40 71.9 °F /  22.2 °C 64.7 °F /  18.2 °C 30.17 in /  1021.6 hPa Calm   1.2 mph /  1.9 km/h 78 % 0.00 in /  0 mm
21:45 71.7 °F /  22.1 °C 64.5 °F /  18.1 °C 30.18 in /  1021.9 hPa Calm   1.2 mph /  1.9 km/h 78 % 0.00 in /  0 mm
21:50 71.6 °F /  22 °C 64.7 °F /  18.2 °C 30.18 in /  1021.9 hPa SW 0.1 mph /  0.2 km/h 1.2 mph /  1.9 km/h 79 % 0.00 in /  0 mm
21:55 71.5 °F /  21.9 °C 64.6 °F /  18.1 °C 30.18 in /  1021.9 hPa Calm   1.2 mph /  1.9 km/h 79 % 0.00 in /  0 mm
22:00 71.4 °F /  21.9 °C 64.5 °F /  18.1 °C 30.18 in /  1021.9 hPa Calm   1.2 mph /  1.9 km/h 79 % 0.00 in /  0 mm
22:05 71.3 °F /  21.8 °C 64.4 °F /  18 °C 30.18 in /  1021.9 hPa Calm   1.2 mph /  1.9 km/h 79 % 0.00 in /  0 mm
22:10 71.2 °F /  21.8 °C 64.0 °F /  17.8 °C 30.18 in /  1021.9 hPa SW 0.2 mph /  0.3 km/h 2.3 mph /  3.7 km/h 78 % 0.00 in /  0 mm
22:15 71.1 °F /  21.7 °C 63.5 °F /  17.5 °C 30.18 in /  1021.9 hPa Calm   1.2 mph /  1.9 km/h 77 % 0.00 in /  0 mm
22:20 71.0 °F /  21.7 °C 63.8 °F /  17.7 °C 30.18 in /  1021.9 hPa West 0.2 mph /  0.3 km/h 1.2 mph /  1.9 km/h 78 % 0.00 in /  0 mm
22:25 70.9 °F /  21.6 °C 63.7 °F /  17.6 °C 30.18 in /  1021.9 hPa Calm     78 % 0.00 in /  0 mm
22:30 70.8 °F /  21.6 °C 63.6 °F /  17.6 °C 30.18 in /  1021.9 hPa SSW 0.1 mph /  0.2 km/h 1.2 mph /  1.9 km/h 78 % 0.00 in /  0 mm
22:35 70.7 °F /  21.5 °C 63.5 °F /  17.5 °C 30.19 in /  1022.2 hPa WSW 0.7 mph /  1.1 km/h 2.0 mph /  3.2 km/h 78 % 0.00 in /  0 mm
22:40 70.6 °F /  21.4 °C 63.8 °F /  17.7 °C 30.18 in /  1021.9 hPa WSW 0.2 mph /  0.3 km/h 2.3 mph /  3.7 km/h 79 % 0.00 in /  0 mm
22:45 70.5 °F /  21.4 °C 63.7 °F /  17.6 °C 30.18 in /  1021.9 hPa Calm     79 % 0.00 in /  0 mm
22:50 70.4 °F /  21.3 °C 63.6 °F /  17.6 °C 30.18 in /  1021.9 hPa Calm   2.0 mph /  3.2 km/h 79 % 0.00 in /  0 mm
22:55 70.4 °F /  21.3 °C 63.6 °F /  17.6 °C 30.18 in /  1021.9 hPa Calm     79 % 0.00 in /  0 mm
23:00 70.3 °F /  21.3 °C 63.5 °F /  17.5 °C 30.18 in /  1021.9 hPa WSW 0.7 mph /  1.1 km/h 1.2 mph /  1.9 km/h 79 % 0.00 in /  0 mm
23:05 70.2 °F /  21.2 °C 63.4 °F /  17.4 °C 30.18 in /  1021.9 hPa WSW 0.8 mph /  1.3 km/h 1.2 mph /  1.9 km/h 79 % 0.00 in /  0 mm
23:11 70.1 °F /  21.2 °C 63.6 °F /  17.6 °C 30.18 in /  1021.9 hPa WSW 0.4 mph /  0.6 km/h 2.3 mph /  3.7 km/h 80 % 0.00 in /  0 mm
23:16 70.0 °F /  21.1 °C 63.5 °F /  17.5 °C 30.18 in /  1021.9 hPa Calm   1.2 mph /  1.9 km/h 80 % 0.00 in /  0 mm
23:21 70.0 °F /  21.1 °C 63.5 °F /  17.5 °C 30.18 in /  1021.9 hPa SW 1.1 mph /  1.8 km/h 2.3 mph /  3.7 km/h 80 % 0.00 in /  0 mm
23:23 69.9 °F /  21.1 °C 63.4 °F /  17.4 °C 30.18 in /  1021.9 hPa SW 0.2 mph /  0.3 km/h 1.2 mph /  1.9 km/h 80 % 0.00 in /  0 mm
23:25 69.9 °F /  21.1 °C 63.8 °F /  17.7 °C 30.18 in /  1021.9 hPa SW 0.6 mph /  1 km/h 1.2 mph /  1.9 km/h 81 % 0.00 in /  0 mm
23:30 69.8 °F /  21 °C 63.7 °F /  17.6 °C 30.18 in /  1021.9 hPa SW 0.1 mph /  0.2 km/h 1.2 mph /  1.9 km/h 81 % 0.00 in /  0 mm
23:35 69.8 °F /  21 °C 64.1 °F /  17.8 °C 30.18 in /  1021.9 hPa SW 0.6 mph /  1 km/h 2.3 mph /  3.7 km/h 82 % 0.00 in /  0 mm
23:37 69.8 °F /  21 °C 64.1 °F /  17.8 °C 30.18 in /  1021.9 hPa SW 1.7 mph /  2.7 km/h 2.3 mph /  3.7 km/h 82 % 0.00 in /  0 mm
23:42 69.7 °F /  20.9 °C 64.3 °F /  17.9 °C 30.18 in /  1021.9 hPa SW 0.3 mph /  0.5 km/h 2.3 mph /  3.7 km/h 83 % 0.00 in /  0 mm
23:47 69.6 °F /  20.9 °C 64.2 °F /  17.9 °C 30.18 in /  1021.9 hPa Calm   3.5 mph /  5.6 km/h 83 % 0.00 in /  0 mm
23:52 69.5 °F /  20.8 °C 64.1 °F /  17.8 °C 30.18 in /  1021.9 hPa SW 0.3 mph /  0.5 km/h 1.2 mph /  1.9 km/h 83 % 0.00 in /  0 mm
23:58 69.5 °F /  20.8 °C 64.1 °F /  17.8 °C 30.18 in /  1021.9 hPa Calm   1.2 mph /  1.9 km/h 83 % 0.00 in /  0 mm
Crab Meadow Weather
Compliments of Weather Underground - 3 mb

Script developed by  Jim McMurry - jmcmurry@mwt.net Adapted for the template by  Wim van der Kuil - Leuven-Template.eu

Weather Terms: Flood Warning (river flood)- A warning for specific communities or areas along a river where flooding is imminent or occurring. Flood warnings normally give specific crest forecasts.